createdAt,value
2023-06-01T00:00:40.574Z,12.25
2023-06-01T00:01:41.018Z,12.21
2023-06-01T00:02:40.996Z,12.21
2023-06-01T00:03:40.568Z,12.18
2023-06-01T00:04:40.626Z,12.23
2023-06-01T00:05:40.509Z,12.28
2023-06-01T00:06:41.338Z,12.28
2023-06-01T00:07:40.501Z,12.25
2023-06-01T00:08:40.500Z,12.28
2023-06-01T00:09:40.480Z,12.33
2023-06-01T00:10:40.469Z,12.41
2023-06-01T00:11:40.799Z,12.46
2023-06-01T00:12:40.462Z,12.47
2023-06-01T00:13:40.434Z,12.53
2023-06-01T00:14:40.441Z,12.55
2023-06-01T00:15:40.799Z,12.62
2023-06-01T00:16:40.461Z,12.68
2023-06-01T00:17:40.410Z,12.66
2023-06-01T00:18:40.405Z,12.71
2023-06-01T00:19:40.390Z,12.69
2023-06-01T00:20:40.408Z,12.71
2023-06-01T00:21:40.451Z,12.69
2023-06-01T00:22:40.439Z,12.66
2023-06-01T00:23:40.353Z,12.66
2023-06-01T00:24:40.335Z,12.62
2023-06-01T00:25:40.650Z,12.58
2023-06-01T00:26:40.320Z,12.51
2023-06-01T00:27:40.323Z,12.54
2023-06-01T00:28:40.304Z,12.47
2023-06-01T00:29:40.317Z,12.44
2023-06-01T00:30:40.600Z,12.48
2023-06-01T00:31:40.361Z,12.43
2023-06-01T00:32:40.303Z,12.43
2023-06-01T00:33:40.250Z,12.48
2023-06-01T00:34:40.575Z,12.47
2023-06-01T00:35:40.254Z,12.48
2023-06-01T00:36:40.228Z,12.44
2023-06-01T00:37:40.215Z,12.44
2023-06-01T00:38:40.220Z,12.47
2023-06-01T00:39:40.717Z,12.46
2023-06-01T00:40:40.189Z,12.46
2023-06-01T00:41:40.187Z,12.50
2023-06-01T00:42:40.161Z,12.44
2023-06-01T00:43:40.492Z,12.46
2023-06-01T00:44:40.148Z,12.46
2023-06-01T00:45:40.139Z,12.47
2023-06-01T00:46:40.170Z,12.48
2023-06-01T00:47:40.160Z,12.48
2023-06-01T00:48:40.536Z,12.50
2023-06-01T00:49:40.106Z,12.46
2023-06-01T00:50:40.092Z,12.46
2023-06-01T00:51:40.090Z,12.47
2023-06-01T00:52:40.796Z,12.43
2023-06-01T00:53:40.410Z,12.43
2023-06-01T00:54:40.058Z,12.44
2023-06-01T00:55:40.054Z,12.46
2023-06-01T00:56:40.038Z,12.46
2023-06-01T00:57:40.337Z,12.43
2023-06-01T00:58:40.029Z,12.43
2023-06-01T00:59:40.016Z,12.35
2023-06-01T01:00:40.002Z,12.33
2023-06-01T01:01:40.137Z,12.32
2023-06-01T01:02:40.362Z,12.35
2023-06-01T01:03:39.981Z,12.26
2023-06-01T01:04:39.994Z,12.26
2023-06-01T01:05:39.965Z,12.23
2023-06-01T01:06:40.285Z,12.17
2023-06-01T01:07:40.335Z,12.18
2023-06-01T01:08:39.929Z,12.22
2023-06-01T01:09:39.931Z,12.15
2023-06-01T01:10:39.913Z,12.11
2023-06-01T01:11:40.735Z,12.08
2023-06-01T01:12:39.916Z,12.10
2023-06-01T01:13:39.898Z,12.07
2023-06-01T01:14:39.882Z,12.00
2023-06-01T01:15:39.880Z,11.97
2023-06-01T01:16:40.145Z,11.95
2023-06-01T01:17:40.054Z,11.91
2023-06-01T01:18:39.844Z,11.85
2023-06-01T01:19:39.844Z,11.80
2023-06-01T01:20:40.569Z,11.69
2023-06-01T01:21:40.270Z,11.73
2023-06-01T01:22:39.844Z,11.61
2023-06-01T01:23:39.822Z,11.58
2023-06-01T01:24:39.797Z,11.56
2023-06-01T01:25:40.208Z,11.51
2023-06-01T01:26:39.777Z,11.52
2023-06-01T01:27:39.775Z,11.49
2023-06-01T01:28:39.763Z,11.49
2023-06-01T01:29:40.102Z,11.45
2023-06-01T01:30:40.603Z,11.45
2023-06-01T01:31:39.831Z,11.38
2023-06-01T01:32:39.761Z,11.34
2023-06-01T01:33:39.726Z,11.30
2023-06-01T01:34:40.099Z,11.23
2023-06-01T01:35:39.709Z,11.22
2023-06-01T01:36:39.704Z,11.27
2023-06-01T01:37:39.682Z,11.25
2023-06-01T01:38:39.679Z,11.16
2023-06-01T01:39:40.034Z,11.09
2023-06-01T01:40:39.658Z,11.15
2023-06-01T01:41:39.655Z,11.18
2023-06-01T01:42:39.639Z,11.09
2023-06-01T01:43:39.934Z,11.12
2023-06-01T01:44:40.061Z,11.05
2023-06-01T01:45:39.625Z,11.11
2023-06-01T01:46:39.655Z,11.08
2023-06-01T01:47:39.759Z,11.05
2023-06-01T01:48:40.069Z,11.03
2023-06-01T01:49:39.594Z,11.00
2023-06-01T01:50:39.573Z,10.95
2023-06-01T01:51:39.569Z,10.91
2023-06-01T01:52:39.550Z,10.87
2023-06-01T01:53:39.936Z,10.83
2023-06-01T01:54:39.539Z,10.80
2023-06-01T01:55:39.531Z,10.75
2023-06-01T01:56:39.517Z,10.75
2023-06-01T01:57:39.904Z,10.73
2023-06-01T01:58:39.865Z,10.76
2023-06-01T01:59:39.502Z,10.76
2023-06-01T02:00:39.484Z,10.75
2023-06-01T02:01:39.526Z,10.82
2023-06-01T02:02:39.812Z,10.90
2023-06-01T02:03:39.555Z,10.98
2023-06-01T02:04:39.446Z,11.01
2023-06-01T02:05:39.442Z,11.08
2023-06-01T02:06:39.441Z,11.18
2023-06-01T02:07:40.092Z,11.27
2023-06-01T02:08:39.426Z,11.27
2023-06-01T02:09:39.405Z,11.31
2023-06-01T02:10:39.395Z,11.34
2023-06-01T02:11:40.320Z,11.31
2023-06-01T02:12:39.712Z,11.36
2023-06-01T02:13:39.365Z,11.33
2023-06-01T02:14:39.358Z,11.31
2023-06-01T02:15:39.355Z,11.28
2023-06-01T02:16:39.746Z,11.30
2023-06-01T02:17:39.338Z,11.28
2023-06-01T02:18:39.319Z,11.28
2023-06-01T02:19:39.305Z,11.30
2023-06-01T02:20:39.303Z,11.25
2023-06-01T02:21:40.093Z,11.25
2023-06-01T02:22:39.280Z,11.19
2023-06-01T02:23:39.269Z,11.18
2023-06-01T02:24:39.267Z,11.23
2023-06-01T02:25:39.697Z,11.20
2023-06-01T02:26:39.594Z,11.18
2023-06-01T02:27:39.252Z,11.15
2023-06-01T02:28:39.178Z,11.12
2023-06-01T02:29:39.216Z,11.16
2023-06-01T02:30:40.111Z,11.13
2023-06-01T02:31:39.177Z,11.16
2023-06-01T02:32:39.165Z,11.13
2023-06-01T02:33:39.129Z,11.12
2023-06-01T02:34:39.130Z,11.11
2023-06-01T02:35:39.822Z,11.15
2023-06-01T02:36:39.113Z,11.13
2023-06-01T02:37:39.102Z,11.16
2023-06-01T02:38:39.097Z,11.05
2023-06-01T02:39:39.352Z,11.12
2023-06-01T02:40:39.893Z,11.09
2023-06-01T02:41:39.070Z,11.03
2023-06-01T02:42:39.049Z,11.01
2023-06-01T02:43:39.046Z,11.00
2023-06-01T02:44:39.380Z,10.98
2023-06-01T02:45:39.042Z,10.97
2023-06-01T02:46:39.035Z,10.95
2023-06-01T02:47:39.010Z,10.97
2023-06-01T02:48:38.999Z,10.95
2023-06-01T02:49:39.519Z,10.95
2023-06-01T02:50:38.982Z,10.94
2023-06-01T02:51:38.968Z,10.93
2023-06-01T02:52:38.965Z,10.86
2023-06-01T02:53:39.725Z,10.87
2023-06-01T02:54:39.348Z,10.87
2023-06-01T02:55:38.931Z,10.86
2023-06-01T02:56:38.924Z,10.83
2023-06-01T02:57:38.911Z,10.87
2023-06-01T02:58:39.239Z,10.86
2023-06-01T02:59:38.890Z,10.86
2023-06-01T03:00:38.889Z,10.85
2023-06-01T03:01:38.914Z,10.86
2023-06-01T03:02:38.887Z,10.86
2023-06-01T03:03:39.232Z,10.90
2023-06-01T03:04:38.855Z,10.87
2023-06-01T03:05:38.837Z,10.86
2023-06-01T03:06:39.140Z,10.91
2023-06-01T03:07:39.144Z,10.86
2023-06-01T03:08:39.185Z,10.93
2023-06-01T03:09:38.801Z,10.90
2023-06-01T03:10:38.820Z,10.94
2023-06-01T03:11:38.782Z,10.86
2023-06-01T03:12:39.117Z,10.86
2023-06-01T03:13:38.768Z,10.93
2023-06-01T03:14:38.764Z,10.86
2023-06-01T03:15:38.791Z,10.93
2023-06-01T03:16:38.759Z,10.95
2023-06-01T03:17:39.114Z,10.95
2023-06-01T03:18:39.368Z,10.98
2023-06-01T03:19:38.722Z,11.04
2023-06-01T03:20:38.721Z,11.00
2023-06-01T03:21:38.893Z,11.03
2023-06-01T03:22:39.028Z,11.03
2023-06-01T03:23:38.738Z,11.00
2023-06-01T03:24:38.714Z,11.04
2023-06-01T03:25:38.662Z,10.98
2023-06-01T03:26:39.148Z,10.97
2023-06-01T03:27:38.654Z,10.98
2023-06-01T03:28:38.639Z,11.03
2023-06-01T03:29:38.619Z,11.03
2023-06-01T03:30:38.614Z,11.03
2023-06-01T03:31:38.992Z,11.08
2023-06-01T03:32:38.657Z,11.08
2023-06-01T03:33:38.583Z,11.05
2023-06-01T03:34:38.578Z,11.11
2023-06-01T03:35:38.839Z,11.12
2023-06-01T03:36:38.872Z,11.05
2023-06-01T03:37:38.542Z,11.04
2023-06-01T03:38:38.543Z,11.05
2023-06-01T03:39:38.522Z,11.03
2023-06-01T03:40:38.998Z,11.00
2023-06-01T03:41:38.513Z,11.04
2023-06-01T03:42:38.501Z,10.97
2023-06-01T03:43:38.497Z,10.95
2023-06-01T03:44:38.483Z,10.97
2023-06-01T03:45:38.971Z,10.95
2023-06-01T03:46:38.494Z,10.95
2023-06-01T03:47:38.528Z,10.93
2023-06-01T03:48:38.458Z,10.90
2023-06-01T03:49:38.957Z,10.90
2023-06-01T03:50:38.798Z,10.87
2023-06-01T03:51:38.436Z,10.87
2023-06-01T03:52:38.449Z,10.90
2023-06-01T03:53:38.400Z,10.87
2023-06-01T03:54:38.750Z,10.87
2023-06-01T03:55:38.380Z,10.87
2023-06-01T03:56:38.379Z,10.86
2023-06-01T03:57:38.366Z,10.83
2023-06-01T03:58:38.357Z,10.85
2023-06-01T03:59:38.355Z,10.87
2023-06-01T04:00:38.345Z,10.91
2023-06-01T04:01:40.240Z,10.93
2023-06-01T04:02:38.407Z,10.94
2023-06-01T04:03:38.838Z,10.93
2023-06-01T04:04:38.818Z,10.91
2023-06-01T04:05:38.305Z,10.93
2023-06-01T04:06:38.300Z,10.93
2023-06-01T04:07:38.276Z,10.94
2023-06-01T04:08:38.298Z,10.94
2023-06-01T04:09:38.251Z,11.00
2023-06-01T04:10:38.252Z,11.00
2023-06-01T04:11:38.241Z,11.01
2023-06-01T04:12:38.234Z,11.01
2023-06-01T04:13:38.563Z,11.00
2023-06-01T04:14:38.216Z,11.00
2023-06-01T04:15:38.198Z,11.01
2023-06-01T04:16:38.222Z,11.04
2023-06-01T04:17:38.258Z,11.11
2023-06-01T04:18:38.191Z,11.13
2023-06-01T04:19:38.162Z,11.13
2023-06-01T04:20:38.161Z,11.16
2023-06-01T04:21:38.211Z,11.19
2023-06-01T04:22:38.162Z,11.19
2023-06-01T04:23:38.136Z,11.19
2023-06-01T04:24:38.129Z,11.28
2023-06-01T04:25:38.113Z,11.33
2023-06-01T04:26:38.107Z,11.33
2023-06-01T04:27:38.112Z,11.36
2023-06-01T04:28:38.092Z,11.36
2023-06-01T04:29:38.113Z,11.36
2023-06-01T04:30:38.068Z,11.34
2023-06-01T04:31:38.432Z,11.36
2023-06-01T04:32:38.400Z,11.36
2023-06-01T04:33:38.039Z,11.36
2023-06-01T04:34:38.032Z,11.36
2023-06-01T04:35:38.031Z,11.34
2023-06-01T04:36:38.062Z,11.28
2023-06-01T04:37:37.994Z,11.34
2023-06-01T04:38:37.993Z,11.27
2023-06-01T04:39:37.974Z,11.22
2023-06-01T04:40:37.993Z,11.23
2023-06-01T04:41:38.312Z,11.22
2023-06-01T04:42:37.959Z,11.25
2023-06-01T04:43:37.950Z,11.27
2023-06-01T04:44:37.944Z,11.36
2023-06-01T04:45:37.958Z,11.51
2023-06-01T04:46:38.183Z,11.56
2023-06-01T04:47:37.932Z,11.55
2023-06-01T04:48:37.901Z,11.54
2023-06-01T04:49:37.893Z,11.56
2023-06-01T04:50:38.631Z,11.55
2023-06-01T04:51:37.942Z,11.54
2023-06-01T04:52:38.411Z,11.52
2023-06-01T04:53:37.852Z,11.43
2023-06-01T04:54:37.869Z,11.52
2023-06-01T04:55:37.871Z,11.48
2023-06-01T04:56:37.846Z,11.45
2023-06-01T04:57:37.839Z,11.46
2023-06-01T04:58:37.817Z,11.45
2023-06-01T04:59:38.150Z,11.40
2023-06-01T05:00:37.804Z,11.34
2023-06-01T05:01:37.815Z,11.37
2023-06-01T05:02:37.805Z,11.48
2023-06-01T05:03:37.801Z,11.58
2023-06-01T05:04:38.103Z,11.55
2023-06-01T05:05:39.319Z,11.43
2023-06-01T05:06:37.755Z,11.27
2023-06-01T05:07:37.730Z,11.25
2023-06-01T05:08:37.790Z,11.19
2023-06-01T05:09:38.035Z,11.23
2023-06-01T05:10:37.719Z,11.25
2023-06-01T05:11:37.700Z,11.18
2023-06-01T05:12:37.700Z,11.19
2023-06-01T05:13:37.829Z,11.12
2023-06-01T05:14:37.685Z,11.12
2023-06-01T05:15:37.663Z,11.03
2023-06-01T05:16:37.790Z,10.95
2023-06-01T05:17:37.663Z,10.97
2023-06-01T05:18:37.673Z,10.95
2023-06-01T05:19:37.632Z,10.87
2023-06-01T05:20:37.630Z,10.82
2023-06-01T05:21:37.668Z,10.82
2023-06-01T05:22:37.941Z,10.82
2023-06-01T05:23:38.098Z,10.80
2023-06-01T05:24:37.599Z,10.82
2023-06-01T05:25:37.581Z,10.85
2023-06-01T05:26:37.591Z,10.86
2023-06-01T05:27:37.580Z,10.93
2023-06-01T05:28:37.578Z,10.95
2023-06-01T05:29:37.541Z,10.90
2023-06-01T05:30:37.549Z,10.82
2023-06-01T05:31:37.592Z,10.67
2023-06-01T05:32:37.924Z,10.68
2023-06-01T05:33:37.513Z,10.61
2023-06-01T05:34:37.510Z,10.68
2023-06-01T05:35:37.497Z,10.65
2023-06-01T05:36:37.676Z,10.64
2023-06-01T05:37:37.494Z,10.49
2023-06-01T05:38:37.469Z,10.49
2023-06-01T05:39:37.452Z,10.55
2023-06-01T05:40:37.455Z,10.54
2023-06-01T05:41:38.117Z,10.60
2023-06-01T05:42:37.428Z,10.70
2023-06-01T05:43:37.415Z,10.65
2023-06-01T05:44:37.415Z,10.73
2023-06-01T05:45:37.451Z,10.79
2023-06-01T05:46:37.430Z,10.85
2023-06-01T05:47:37.436Z,10.79
2023-06-01T05:48:39.274Z,10.82
2023-06-01T05:49:37.370Z,10.87
2023-06-01T05:50:37.373Z,10.86
2023-06-01T05:51:38.066Z,10.91
2023-06-01T05:52:37.338Z,10.95
2023-06-01T05:53:37.325Z,10.94
2023-06-01T05:54:37.320Z,10.93
2023-06-01T05:55:37.850Z,11.03
2023-06-01T05:56:37.299Z,11.13
2023-06-01T05:57:37.285Z,11.05
2023-06-01T05:58:37.285Z,11.09
2023-06-01T05:59:37.268Z,11.09
2023-06-01T06:00:37.613Z,11.09
2023-06-01T06:01:37.464Z,11.12
2023-06-01T06:02:37.306Z,11.19
2023-06-01T06:03:37.313Z,11.15
2023-06-01T06:04:38.100Z,11.12
2023-06-01T06:05:37.225Z,11.09
2023-06-01T06:06:37.251Z,11.11
2023-06-01T06:07:37.543Z,11.12
2023-06-01T06:08:37.209Z,11.23
2023-06-01T06:09:37.498Z,11.31
2023-06-01T06:10:37.194Z,11.40
2023-06-01T06:11:37.166Z,11.49
2023-06-01T06:12:37.169Z,11.61
2023-06-01T06:13:37.859Z,11.71
2023-06-01T06:14:37.649Z,11.71
2023-06-01T06:15:37.147Z,11.59
2023-06-01T06:16:37.138Z,11.52
2023-06-01T06:17:37.189Z,11.46
2023-06-01T06:18:37.457Z,11.36
2023-06-01T06:19:37.104Z,11.34
2023-06-01T06:20:37.103Z,11.33
2023-06-01T06:21:37.188Z,11.16
2023-06-01T06:22:37.086Z,11.18
2023-06-01T06:23:37.912Z,11.22
2023-06-01T06:24:37.070Z,11.19
2023-06-01T06:25:37.077Z,11.18
2023-06-01T06:26:37.054Z,11.11
2023-06-01T06:27:37.500Z,11.11
2023-06-01T06:28:37.426Z,11.16
2023-06-01T06:29:37.033Z,11.13
2023-06-01T06:30:37.014Z,11.09
2023-06-01T06:31:37.054Z,11.08
2023-06-01T06:32:37.816Z,11.04
2023-06-01T06:33:36.988Z,11.12
2023-06-01T06:34:36.977Z,11.08
2023-06-01T06:35:36.974Z,11.09
2023-06-01T06:36:36.964Z,11.15
2023-06-01T06:37:37.251Z,11.15
2023-06-01T06:38:36.943Z,11.25
2023-06-01T06:39:36.942Z,11.27
2023-06-01T06:40:36.924Z,11.18
2023-06-01T06:41:37.288Z,11.16
2023-06-01T06:42:37.598Z,11.08
2023-06-01T06:43:36.902Z,11.01
2023-06-01T06:44:36.900Z,10.98
2023-06-01T06:45:36.887Z,10.98
2023-06-01T06:46:37.245Z,11.09
2023-06-01T06:47:36.896Z,11.04
2023-06-01T06:48:36.851Z,11.11
2023-06-01T06:49:36.874Z,11.19
2023-06-01T06:50:36.841Z,11.30
2023-06-01T06:51:37.624Z,11.30
2023-06-01T06:52:36.836Z,11.40
2023-06-01T06:53:36.820Z,11.41
2023-06-01T06:54:36.813Z,11.33
2023-06-01T06:55:37.149Z,11.33
2023-06-01T06:56:37.163Z,11.36
2023-06-01T06:57:36.779Z,11.22
2023-06-01T06:58:36.776Z,11.25
2023-06-01T06:59:36.790Z,11.45
2023-06-01T07:00:37.139Z,11.43
2023-06-01T07:01:38.688Z,11.56
2023-06-01T07:02:36.801Z,11.56
2023-06-01T07:03:36.800Z,11.66
2023-06-01T07:04:36.723Z,11.66
2023-06-01T07:05:37.461Z,11.54
2023-06-01T07:06:36.705Z,11.54
2023-06-01T07:07:36.707Z,11.43
2023-06-01T07:08:36.683Z,11.23
2023-06-01T07:09:37.151Z,11.27
2023-06-01T07:10:37.029Z,11.22
2023-06-01T07:11:36.662Z,11.27
2023-06-01T07:12:36.659Z,11.31
2023-06-01T07:13:36.650Z,11.40
2023-06-01T07:14:36.999Z,11.52
2023-06-01T07:15:36.632Z,11.56
2023-06-01T07:16:36.674Z,11.58
2023-06-01T07:17:36.642Z,11.56
2023-06-01T07:18:36.600Z,11.61
2023-06-01T07:19:36.875Z,11.73
2023-06-01T07:20:36.577Z,11.82
2023-06-01T07:21:36.595Z,11.87
2023-06-01T07:22:36.568Z,11.85
2023-06-01T07:23:36.596Z,11.87
2023-06-01T07:24:36.893Z,11.97
2023-06-01T07:25:36.555Z,12.17
2023-06-01T07:26:36.527Z,12.26
2023-06-01T07:27:36.529Z,12.41
2023-06-01T07:28:36.854Z,12.50
2023-06-01T07:29:36.526Z,12.44
2023-06-01T07:30:36.520Z,12.54
2023-06-01T07:31:36.695Z,12.44
2023-06-01T07:32:36.673Z,12.50
2023-06-01T07:33:37.352Z,12.51
2023-06-01T07:34:36.464Z,12.63
2023-06-01T07:35:36.467Z,12.62
2023-06-01T07:36:36.448Z,12.87
2023-06-01T07:37:36.733Z,13.13
2023-06-01T07:38:36.438Z,12.90
2023-06-01T07:39:36.439Z,12.87
2023-06-01T07:40:36.406Z,12.72
2023-06-01T07:41:36.398Z,12.71
2023-06-01T07:42:37.148Z,12.77
2023-06-01T07:43:36.381Z,12.73
2023-06-01T07:44:36.363Z,12.80
2023-06-01T07:45:36.370Z,12.80
2023-06-01T07:46:36.367Z,12.83
2023-06-01T07:47:36.411Z,12.81
2023-06-01T07:48:36.328Z,12.77
2023-06-01T07:49:36.334Z,12.84
2023-06-01T07:50:36.307Z,12.80
2023-06-01T07:51:37.096Z,12.81
2023-06-01T07:52:37.004Z,12.73
2023-06-01T07:53:36.299Z,12.90
2023-06-01T07:54:36.306Z,13.17
2023-06-01T07:55:36.262Z,13.17
2023-06-01T07:56:36.302Z,13.09
2023-06-01T07:57:36.244Z,13.14
2023-06-01T07:58:36.238Z,13.29
2023-06-01T07:59:36.229Z,13.19
2023-06-01T08:00:36.211Z,13.21
2023-06-01T08:01:36.653Z,13.30
2023-06-01T08:02:36.278Z,13.40
2023-06-01T08:03:36.272Z,13.42
2023-06-01T08:04:36.163Z,13.64
2023-06-01T08:05:38.686Z,13.82
2023-06-01T08:06:36.168Z,13.91
2023-06-01T08:07:36.132Z,14.30
2023-06-01T08:08:36.122Z,14.73
2023-06-01T08:09:36.124Z,14.67
2023-06-01T08:10:36.517Z,14.74
2023-06-01T08:11:36.093Z,15.03
2023-06-01T08:12:36.091Z,14.99
2023-06-01T08:13:36.071Z,14.90
2023-06-01T08:14:36.049Z,15.32
2023-06-01T08:15:36.410Z,15.90
2023-06-01T08:16:36.060Z,15.43
2023-06-01T08:17:36.169Z,14.99
2023-06-01T08:18:36.015Z,14.46
2023-06-01T08:19:36.396Z,14.36
2023-06-01T08:20:36.899Z,14.21
2023-06-01T08:21:36.012Z,14.78
2023-06-01T08:22:35.981Z,14.93
2023-06-01T08:23:35.973Z,15.96
2023-06-01T08:24:36.358Z,16.06
2023-06-01T08:25:35.953Z,16.57
2023-06-01T08:26:35.936Z,16.84
2023-06-01T08:27:35.930Z,16.91
2023-06-01T08:28:35.921Z,16.88
2023-06-01T08:30:35.912Z,16.54
2023-06-01T08:31:35.938Z,17.01
2023-06-01T08:32:35.906Z,16.94
2023-06-01T08:33:36.204Z,17.06
2023-06-01T08:34:36.197Z,17.10
2023-06-01T08:35:35.843Z,16.55
2023-06-01T08:36:35.812Z,16.46
2023-06-01T08:37:35.804Z,16.52
2023-06-01T08:38:35.816Z,16.73
2023-06-01T08:39:35.790Z,16.70
2023-06-01T08:40:35.762Z,16.22
2023-06-01T08:41:35.758Z,16.06
2023-06-01T08:42:35.742Z,16.18
2023-06-01T08:43:36.419Z,16.25
2023-06-01T08:44:35.719Z,16.67
2023-06-01T08:45:35.726Z,16.91
2023-06-01T08:46:35.758Z,16.94
2023-06-01T08:47:36.084Z,16.92
2023-06-01T08:48:36.021Z,16.73
2023-06-01T08:49:35.685Z,16.69
2023-06-01T08:50:35.650Z,16.47
2023-06-01T08:51:35.649Z,16.55
2023-06-01T08:52:36.533Z,16.59
2023-06-01T08:53:35.630Z,16.61
2023-06-01T08:54:35.611Z,16.33
2023-06-01T08:55:35.598Z,16.09
2023-06-01T08:56:35.583Z,16.08
2023-06-01T08:57:35.800Z,16.14
2023-06-01T08:58:35.563Z,16.17
2023-06-01T08:59:35.551Z,16.59
2023-06-01T09:00:35.540Z,16.88
2023-06-01T09:01:35.596Z,16.91
2023-06-01T09:02:36.289Z,16.58
2023-06-01T09:03:35.533Z,16.57
2023-06-01T09:04:35.496Z,16.88
2023-06-01T09:05:35.484Z,17.07
2023-06-01T09:06:35.783Z,16.99
2023-06-01T09:07:35.781Z,16.76
2023-06-01T09:08:35.511Z,16.90
2023-06-01T09:09:35.557Z,17.13
2023-06-01T09:10:35.426Z,17.38
2023-06-01T09:11:35.792Z,17.22
2023-06-01T09:12:35.404Z,17.30
2023-06-01T09:13:35.427Z,17.63
2023-06-01T09:14:35.381Z,17.68
2023-06-01T09:15:35.378Z,17.25
2023-06-01T09:16:35.727Z,17.32
2023-06-01T09:17:35.409Z,17.39
2023-06-01T09:18:35.342Z,17.46
2023-06-01T09:19:35.335Z,17.56
2023-06-01T09:20:36.185Z,17.99
2023-06-01T09:21:35.354Z,18.24
2023-06-01T09:22:35.301Z,18.03
2023-06-01T09:23:35.296Z,17.84
2023-06-01T09:24:35.610Z,17.41
2023-06-01T09:25:35.690Z,17.34
2023-06-01T09:26:35.253Z,17.53
2023-06-01T09:27:35.246Z,17.87
2023-06-01T09:28:35.233Z,17.99
2023-06-01T09:29:35.238Z,18.24
2023-06-01T09:30:35.689Z,17.90
2023-06-01T09:31:35.254Z,17.57
2023-06-01T09:32:35.201Z,18.11
2023-06-01T09:33:35.178Z,18.58
2023-06-01T09:34:35.851Z,18.83
2023-06-01T09:35:35.867Z,18.58
2023-06-01T09:36:35.157Z,18.78
2023-06-01T09:37:35.135Z,18.64
2023-06-01T09:38:35.131Z,19.07
2023-06-01T09:39:35.440Z,19.47
2023-06-01T09:40:35.099Z,19.47
2023-06-01T09:41:35.096Z,19.70
2023-06-01T09:42:35.074Z,19.89
2023-06-01T09:43:35.076Z,19.77
2023-06-01T09:44:35.552Z,19.44
2023-06-01T09:45:35.063Z,19.41
2023-06-01T09:46:35.048Z,19.34
2023-06-01T09:47:35.149Z,18.96
2023-06-01T09:48:35.383Z,18.85
2023-06-01T09:49:35.366Z,18.75
2023-06-01T09:50:34.999Z,18.79
2023-06-01T09:51:34.990Z,19.05
2023-06-01T09:52:34.964Z,19.20
2023-06-01T09:53:35.666Z,18.91
2023-06-01T09:54:34.955Z,18.75
2023-06-01T09:55:34.948Z,18.70
2023-06-01T09:56:34.923Z,18.61
2023-06-01T09:57:34.913Z,18.86
2023-06-01T09:58:34.919Z,18.86
2023-06-01T09:59:34.904Z,18.89
2023-06-01T10:00:34.886Z,19.19
2023-06-01T10:01:34.999Z,19.22
2023-06-01T10:02:35.702Z,19.24
2023-06-01T10:03:35.457Z,19.50
2023-06-01T10:04:34.854Z,19.67
2023-06-01T10:05:34.834Z,19.68
2023-06-01T10:06:34.823Z,19.54
2023-06-01T10:07:35.157Z,19.38
2023-06-01T10:08:34.812Z,19.15
2023-06-01T10:09:34.798Z,19.23
2023-06-01T10:10:34.779Z,19.44
2023-06-01T10:11:34.777Z,19.68
2023-06-01T10:12:35.200Z,19.60
2023-06-01T10:13:34.754Z,19.57
2023-06-01T10:14:34.747Z,19.67
2023-06-01T10:15:34.743Z,19.67
2023-06-01T10:16:35.064Z,19.57
2023-06-01T10:17:35.735Z,19.77
2023-06-01T10:18:34.699Z,19.75
2023-06-01T10:19:34.692Z,19.27
2023-06-01T10:20:34.679Z,18.98
2023-06-01T10:21:35.501Z,18.94
2023-06-01T10:22:34.661Z,19.01
2023-06-01T10:23:34.654Z,18.98
2023-06-01T10:24:34.636Z,19.16
2023-06-01T10:25:34.982Z,19.49
2023-06-01T10:26:35.174Z,19.45
2023-06-01T10:27:34.637Z,19.47
2023-06-01T10:28:34.624Z,19.42
2023-06-01T10:29:34.588Z,19.64
2023-06-01T10:30:34.925Z,19.90
2023-06-01T10:31:34.954Z,20.07
2023-06-01T10:32:34.589Z,20.18
2023-06-01T10:33:34.566Z,20.26
2023-06-01T10:34:34.575Z,20.53
2023-06-01T10:35:35.257Z,20.73
2023-06-01T10:36:34.516Z,20.64
2023-06-01T10:37:34.511Z,20.50
2023-06-01T10:38:34.497Z,20.52
2023-06-01T10:39:36.085Z,20.42
2023-06-01T10:40:34.792Z,20.30
2023-06-01T10:41:34.505Z,20.17
2023-06-01T10:42:34.455Z,19.81
2023-06-01T10:43:34.448Z,19.54
2023-06-01T10:44:35.206Z,19.60
2023-06-01T10:45:34.435Z,19.90
2023-06-01T10:46:34.470Z,20.05
2023-06-01T10:47:34.402Z,19.92
2023-06-01T10:48:34.396Z,20.17
2023-06-01T10:49:34.898Z,20.19
2023-06-01T10:50:34.379Z,19.70
2023-06-01T10:51:34.352Z,19.70
2023-06-01T10:52:34.434Z,19.64
2023-06-01T10:53:34.359Z,19.84
2023-06-01T10:54:34.738Z,19.93
2023-06-01T10:55:34.308Z,20.09
2023-06-01T10:56:34.321Z,20.22
2023-06-01T10:57:34.308Z,20.32
2023-06-01T10:58:34.317Z,20.23
2023-06-01T10:59:34.277Z,20.39
2023-06-01T11:00:34.295Z,20.58
2023-06-01T11:01:34.306Z,20.50
2023-06-01T11:02:34.292Z,20.32
2023-06-01T11:03:34.379Z,20.30
2023-06-01T11:04:34.331Z,20.41
2023-06-01T11:05:34.226Z,20.26
2023-06-01T11:06:34.209Z,20.25
2023-06-01T11:07:34.487Z,20.25
2023-06-01T11:08:34.554Z,20.08
2023-06-01T11:09:34.175Z,20.00
2023-06-01T11:10:34.166Z,20.04
2023-06-01T11:11:34.157Z,20.02
2023-06-01T11:12:34.466Z,19.93
2023-06-01T11:13:34.135Z,19.79
2023-06-01T11:14:34.151Z,19.74
2023-06-01T11:15:34.128Z,19.79
2023-06-01T11:16:34.230Z,19.74
2023-06-01T11:17:34.630Z,19.78
2023-06-01T11:18:34.084Z,19.62
2023-06-01T11:19:34.064Z,19.75
2023-06-01T11:20:34.076Z,19.52
2023-06-01T11:21:34.891Z,19.53
2023-06-01T11:22:34.358Z,19.67
2023-06-01T11:23:34.026Z,19.68
2023-06-01T11:24:34.031Z,19.84
2023-06-01T11:25:34.016Z,19.89
2023-06-01T11:26:34.034Z,19.84
2023-06-01T11:27:33.994Z,19.99
2023-06-01T11:28:33.991Z,20.08
2023-06-01T11:29:33.972Z,19.94
2023-06-01T11:30:33.957Z,20.07
2023-06-01T11:31:34.335Z,19.93
2023-06-01T11:32:34.030Z,20.02
2023-06-01T11:33:34.757Z,19.79
2023-06-01T11:34:33.917Z,19.81
2023-06-01T11:35:34.418Z,19.94
2023-06-01T11:36:33.911Z,19.99
2023-06-01T11:37:33.883Z,19.89
2023-06-01T11:38:33.877Z,20.15
2023-06-01T11:39:33.886Z,20.44
2023-06-01T11:40:38.296Z,20.49
2023-06-01T11:41:33.846Z,20.50
2023-06-01T11:42:33.834Z,20.41
2023-06-01T11:43:33.825Z,20.30
2023-06-01T11:44:33.819Z,20.36
2023-06-01T11:45:34.120Z,20.49
2023-06-01T11:46:33.838Z,20.63
2023-06-01T11:47:33.816Z,20.56
2023-06-01T11:48:33.767Z,20.60
2023-06-01T11:49:33.763Z,20.50
2023-06-01T11:50:34.063Z,20.36
2023-06-01T11:51:33.741Z,20.11
2023-06-01T11:52:33.723Z,20.27
2023-06-01T11:53:33.710Z,20.29
2023-06-01T11:54:34.046Z,20.39
2023-06-01T11:55:33.691Z,20.46
2023-06-01T11:56:33.690Z,20.46
2023-06-01T11:57:33.686Z,20.18
2023-06-01T11:58:33.681Z,20.26
2023-06-01T11:59:33.990Z,20.09
2023-06-01T12:00:33.647Z,20.11
2023-06-01T12:01:33.631Z,20.05
2023-06-01T12:02:33.659Z,20.29
2023-06-01T12:03:34.049Z,20.56
2023-06-01T12:04:34.016Z,20.71
2023-06-01T12:05:33.588Z,20.83
2023-06-01T12:06:33.590Z,20.95
2023-06-01T12:07:33.576Z,20.93
2023-06-01T12:08:33.982Z,20.97
2023-06-01T12:09:33.550Z,21.13
2023-06-01T12:10:33.548Z,21.23
2023-06-01T12:11:33.529Z,20.89
2023-06-01T12:12:33.531Z,20.70
2023-06-01T12:13:33.970Z,20.41
2023-06-01T12:14:33.542Z,20.19
2023-06-01T12:15:33.509Z,20.05
2023-06-01T12:16:33.575Z,20.09
2023-06-01T12:17:33.999Z,20.26
2023-06-01T12:18:33.885Z,20.56
2023-06-01T12:19:33.504Z,20.77
2023-06-01T12:20:33.460Z,20.63
2023-06-01T12:21:33.482Z,20.55
2023-06-01T12:22:33.764Z,20.68
2023-06-01T12:23:33.424Z,20.48
2023-06-01T12:24:33.404Z,20.32
2023-06-01T12:25:33.404Z,20.42
2023-06-01T12:26:33.400Z,20.60
2023-06-01T12:27:33.740Z,20.65
2023-06-01T12:28:33.377Z,20.82
2023-06-01T12:29:33.353Z,20.64
2023-06-01T12:30:33.356Z,20.63
2023-06-01T12:31:33.787Z,20.55
2023-06-01T12:32:33.712Z,20.61
2023-06-01T12:33:33.310Z,20.67
2023-06-01T12:34:33.312Z,20.70
2023-06-01T12:35:33.295Z,20.86
2023-06-01T12:36:33.968Z,20.74
2023-06-01T12:37:33.281Z,20.68
2023-06-01T12:38:33.274Z,20.63
2023-06-01T12:39:33.250Z,20.80
2023-06-01T12:40:33.771Z,20.88
2023-06-01T12:41:33.601Z,20.92
2023-06-01T12:42:33.227Z,21.05
2023-06-01T12:43:33.206Z,21.18
2023-06-01T12:44:33.200Z,21.30
2023-06-01T12:45:33.536Z,21.28
2023-06-01T12:46:33.263Z,21.23
2023-06-01T12:47:33.223Z,21.05
2023-06-01T12:48:33.178Z,21.05
2023-06-01T12:49:33.159Z,21.04
2023-06-01T12:50:33.142Z,21.19
2023-06-01T12:51:33.127Z,21.29
2023-06-01T12:52:33.162Z,21.23
2023-06-01T12:53:33.182Z,21.14